sensor_id;sensor_type;location;lat;lon;timestamp;P1;durP1;ratioP1;P2;durP2;ratioP2
29662;SDS011;16578;53.266;7.920;2023-04-09T00:00:00;99.63;;;60.83;;
29662;SDS011;16578;53.266;7.920;2023-04-09T00:02:25;98.25;;;61.03;;
29662;SDS011;16578;53.266;7.920;2023-04-09T00:04:51;100.53;;;62.65;;
29662;SDS011;16578;53.266;7.920;2023-04-09T00:07:17;99.63;;;60.10;;
29662;SDS011;16578;53.266;7.920;2023-04-09T00:09:42;95.40;;;61.25;;
29662;SDS011;16578;53.266;7.920;2023-04-09T00:12:08;91.53;;;59.90;;
29662;SDS011;16578;53.266;7.920;2023-04-09T00:14:33;88.28;;;56.72;;
29662;SDS011;16578;53.266;7.920;2023-04-09T00:16:59;87.57;;;54.42;;
29662;SDS011;16578;53.266;7.920;2023-04-09T00:19:25;93.75;;;55.55;;
29662;SDS011;16578;53.266;7.920;2023-04-09T00:21:50;89.88;;;55.58;;
29662;SDS011;16578;53.266;7.920;2023-04-09T00:24:16;91.18;;;56.55;;
29662;SDS011;16578;53.266;7.920;2023-04-09T00:26:42;89.13;;;56.15;;
29662;SDS011;16578;53.266;7.920;2023-04-09T00:29:07;89.55;;;57.25;;
29662;SDS011;16578;53.266;7.920;2023-04-09T00:31:33;92.35;;;56.75;;
29662;SDS011;16578;53.266;7.920;2023-04-09T00:33:58;91.38;;;56.75;;
29662;SDS011;16578;53.266;7.920;2023-04-09T00:36:24;92.95;;;60.60;;
29662;SDS011;16578;53.266;7.920;2023-04-09T00:38:50;89.72;;;56.22;;
29662;SDS011;16578;53.266;7.920;2023-04-09T00:41:17;92.80;;;59.10;;
29662;SDS011;16578;53.266;7.920;2023-04-09T00:43:43;89.88;;;56.67;;
29662;SDS011;16578;53.266;7.920;2023-04-09T00:46:09;91.78;;;57.55;;
29662;SDS011;16578;53.266;7.920;2023-04-09T00:48:35;87.47;;;58.72;;
29662;SDS011;16578;53.266;7.920;2023-04-09T00:51:00;91.75;;;61.25;;
29662;SDS011;16578;53.266;7.920;2023-04-09T00:53:26;87.13;;;56.80;;
29662;SDS011;16578;53.266;7.920;2023-04-09T00:55:52;88.47;;;56.10;;
29662;SDS011;16578;53.266;7.920;2023-04-09T00:58:18;90.95;;;56.63;;
29662;SDS011;16578;53.266;7.920;2023-04-09T01:00:44;83.75;;;54.38;;
29662;SDS011;16578;53.266;7.920;2023-04-09T01:03:10;94.22;;;59.45;;
29662;SDS011;16578;53.266;7.920;2023-04-09T01:11:12;85.90;;;55.03;;
29662;SDS011;16578;53.266;7.920;2023-04-09T01:13:48;84.47;;;52.00;;
29662;SDS011;16578;53.266;7.920;2023-04-09T01:16:34;86.63;;;53.17;;
29662;SDS011;16578;53.266;7.920;2023-04-09T01:19:06;85.78;;;55.47;;
29662;SDS011;16578;53.266;7.920;2023-04-09T01:21:40;84.65;;;55.38;;
29662;SDS011;16578;53.266;7.920;2023-04-09T01:24:11;92.97;;;56.05;;
29662;SDS011;16578;53.266;7.920;2023-04-09T01:26:55;87.72;;;52.83;;
29662;SDS011;16578;53.266;7.920;2023-04-09T01:29:23;84.80;;;54.60;;
29662;SDS011;16578;53.266;7.920;2023-04-09T01:31:50;90.40;;;57.25;;
29662;SDS011;16578;53.266;7.920;2023-04-09T01:34:16;91.40;;;54.58;;
29662;SDS011;16578;53.266;7.920;2023-04-09T01:36:49;93.90;;;57.30;;
29662;SDS011;16578;53.266;7.920;2023-04-09T01:39:18;93.05;;;56.42;;
29662;SDS011;16578;53.266;7.920;2023-04-09T01:41:44;94.10;;;58.00;;
29662;SDS011;16578;53.266;7.920;2023-04-09T01:44:10;89.68;;;55.85;;
29662;SDS011;16578;53.266;7.920;2023-04-09T01:46:38;87.47;;;54.58;;
29662;SDS011;16578;53.266;7.920;2023-04-09T01:49:04;87.43;;;54.20;;
29662;SDS011;16578;53.266;7.920;2023-04-09T01:51:30;88.28;;;53.83;;
29662;SDS011;16578;53.266;7.920;2023-04-09T01:53:57;96.40;;;59.08;;
29662;SDS011;16578;53.266;7.920;2023-04-09T01:56:23;97.90;;;59.05;;
29662;SDS011;16578;53.266;7.920;2023-04-09T01:58:48;87.13;;;57.10;;
29662;SDS011;16578;53.266;7.920;2023-04-09T02:07:14;88.90;;;54.30;;
29662;SDS011;16578;53.266;7.920;2023-04-09T02:09:47;95.30;;;57.20;;
29662;SDS011;16578;53.266;7.920;2023-04-09T02:12:15;87.45;;;53.42;;
29662;SDS011;16578;53.266;7.920;2023-04-09T02:17:11;83.60;;;52.50;;
29662;SDS011;16578;53.266;7.920;2023-04-09T02:19:40;89.07;;;52.65;;
29662;SDS011;16578;53.266;7.920;2023-04-09T02:22:07;91.43;;;55.10;;
29662;SDS011;16578;53.266;7.920;2023-04-09T02:24:33;91.53;;;52.22;;
29662;SDS011;16578;53.266;7.920;2023-04-09T02:27:00;90.72;;;54.05;;
29662;SDS011;16578;53.266;7.920;2023-04-09T02:29:26;86.15;;;53.75;;
29662;SDS011;16578;53.266;7.920;2023-04-09T02:31:51;84.95;;;54.03;;
29662;SDS011;16578;53.266;7.920;2023-04-09T02:34:17;94.72;;;56.55;;
29662;SDS011;16578;53.266;7.920;2023-04-09T02:36:43;91.05;;;54.47;;
29662;SDS011;16578;53.266;7.920;2023-04-09T02:39:09;88.05;;;53.28;;
29662;SDS011;16578;53.266;7.920;2023-04-09T02:41:35;87.35;;;52.13;;
29662;SDS011;16578;53.266;7.920;2023-04-09T02:44:00;89.95;;;56.10;;
29662;SDS011;16578;53.266;7.920;2023-04-09T02:46:26;88.20;;;54.70;;
29662;SDS011;16578;53.266;7.920;2023-04-09T02:48:51;88.63;;;55.10;;
29662;SDS011;16578;53.266;7.920;2023-04-09T02:51:17;100.13;;;58.15;;
29662;SDS011;16578;53.266;7.920;2023-04-09T02:53:42;91.93;;;56.17;;
29662;SDS011;16578;53.266;7.920;2023-04-09T02:56:09;95.45;;;55.90;;
29662;SDS011;16578;53.266;7.920;2023-04-09T02:58:35;86.30;;;55.90;;
29662;SDS011;16578;53.266;7.920;2023-04-09T03:01:00;95.43;;;56.38;;
29662;SDS011;16578;53.266;7.920;2023-04-09T03:03:26;93.28;;;55.60;;
29662;SDS011;16578;53.266;7.920;2023-04-09T03:05:52;87.45;;;54.85;;
29662;SDS011;16578;53.266;7.920;2023-04-09T03:08:17;85.60;;;52.80;;
29662;SDS011;16578;53.266;7.920;2023-04-09T03:10:43;90.63;;;53.20;;
29662;SDS011;16578;53.266;7.920;2023-04-09T03:13:08;91.45;;;54.03;;
29662;SDS011;16578;53.266;7.920;2023-04-09T03:15:34;87.93;;;52.60;;
29662;SDS011;16578;53.266;7.920;2023-04-09T03:17:59;88.82;;;53.65;;
29662;SDS011;16578;53.266;7.920;2023-04-09T03:20:25;83.70;;;51.10;;
29662;SDS011;16578;53.266;7.920;2023-04-09T03:22:50;93.47;;;53.20;;
29662;SDS011;16578;53.266;7.920;2023-04-09T03:25:16;94.93;;;56.17;;
29662;SDS011;16578;53.266;7.920;2023-04-09T03:27:43;83.68;;;52.05;;
29662;SDS011;16578;53.266;7.920;2023-04-09T03:30:09;86.75;;;53.08;;
29662;SDS011;16578;53.266;7.920;2023-04-09T03:32:35;86.78;;;52.10;;
29662;SDS011;16578;53.266;7.920;2023-04-09T03:35:01;82.82;;;50.47;;
29662;SDS011;16578;53.266;7.920;2023-04-09T03:37:26;80.35;;;50.58;;
29662;SDS011;16578;53.266;7.920;2023-04-09T03:39:52;85.93;;;51.90;;
29662;SDS011;16578;53.266;7.920;2023-04-09T03:42:17;86.78;;;50.78;;
29662;SDS011;16578;53.266;7.920;2023-04-09T03:44:43;80.82;;;51.22;;
29662;SDS011;16578;53.266;7.920;2023-04-09T03:47:08;89.70;;;51.80;;
29662;SDS011;16578;53.266;7.920;2023-04-09T03:49:34;82.80;;;52.85;;
29662;SDS011;16578;53.266;7.920;2023-04-09T03:52:00;84.10;;;54.83;;
29662;SDS011;16578;53.266;7.920;2023-04-09T03:54:29;83.47;;;52.38;;
29662;SDS011;16578;53.266;7.920;2023-04-09T03:59:20;75.38;;;45.42;;
29662;SDS011;16578;53.266;7.920;2023-04-09T04:01:46;76.40;;;45.97;;
29662;SDS011;16578;53.266;7.920;2023-04-09T04:04:12;77.45;;;47.70;;
29662;SDS011;16578;53.266;7.920;2023-04-09T04:06:38;80.93;;;49.83;;
29662;SDS011;16578;53.266;7.920;2023-04-09T04:09:03;77.32;;;47.60;;
29662;SDS011;16578;53.266;7.920;2023-04-09T04:11:29;78.85;;;46.60;;
29662;SDS011;16578;53.266;7.920;2023-04-09T04:13:54;77.93;;;45.55;;
29662;SDS011;16578;53.266;7.920;2023-04-09T04:16:20;78.93;;;48.78;;
29662;SDS011;16578;53.266;7.920;2023-04-09T04:18:45;75.22;;;47.65;;
29662;SDS011;16578;53.266;7.920;2023-04-09T04:21:14;77.15;;;47.33;;
29662;SDS011;16578;53.266;7.920;2023-04-09T04:23:40;74.75;;;46.58;;
29662;SDS011;16578;53.266;7.920;2023-04-09T04:26:09;75.25;;;48.08;;
29662;SDS011;16578;53.266;7.920;2023-04-09T04:28:38;82.88;;;47.47;;
29662;SDS011;16578;53.266;7.920;2023-04-09T04:31:07;81.95;;;47.40;;
29662;SDS011;16578;53.266;7.920;2023-04-09T04:33:38;72.60;;;46.67;;
29662;SDS011;16578;53.266;7.920;2023-04-09T04:36:05;74.90;;;45.33;;
29662;SDS011;16578;53.266;7.920;2023-04-09T04:38:32;77.28;;;45.50;;
29662;SDS011;16578;53.266;7.920;2023-04-09T04:40:59;70.03;;;43.33;;
29662;SDS011;16578;53.266;7.920;2023-04-09T04:43:24;70.97;;;43.10;;
29662;SDS011;16578;53.266;7.920;2023-04-09T04:45:50;71.07;;;42.35;;
29662;SDS011;16578;53.266;7.920;2023-04-09T04:48:16;72.18;;;41.67;;
29662;SDS011;16578;53.266;7.920;2023-04-09T04:50:41;72.53;;;43.80;;
29662;SDS011;16578;53.266;7.920;2023-04-09T04:53:07;67.03;;;41.55;;
29662;SDS011;16578;53.266;7.920;2023-04-09T04:55:35;70.10;;;43.45;;
29662;SDS011;16578;53.266;7.920;2023-04-09T04:58:03;69.95;;;41.53;;
29662;SDS011;16578;53.266;7.920;2023-04-09T05:00:29;72.38;;;42.10;;
29662;SDS011;16578;53.266;7.920;2023-04-09T05:02:55;72.35;;;42.47;;
29662;SDS011;16578;53.266;7.920;2023-04-09T05:05:21;72.28;;;42.78;;
29662;SDS011;16578;53.266;7.920;2023-04-09T05:07:46;74.35;;;42.65;;
29662;SDS011;16578;53.266;7.920;2023-04-09T05:10:12;68.18;;;39.85;;
29662;SDS011;16578;53.266;7.920;2023-04-09T05:12:40;66.97;;;41.40;;
29662;SDS011;16578;53.266;7.920;2023-04-09T05:15:06;68.78;;;41.35;;
29662;SDS011;16578;53.266;7.920;2023-04-09T05:17:32;67.45;;;41.17;;
29662;SDS011;16578;53.266;7.920;2023-04-09T05:19:57;62.17;;;38.00;;
29662;SDS011;16578;53.266;7.920;2023-04-09T05:22:26;73.88;;;42.42;;
29662;SDS011;16578;53.266;7.920;2023-04-09T05:24:51;74.47;;;42.20;;
29662;SDS011;16578;53.266;7.920;2023-04-09T05:27:17;66.70;;;41.08;;
29662;SDS011;16578;53.266;7.920;2023-04-09T05:29:44;66.15;;;40.92;;
29662;SDS011;16578;53.266;7.920;2023-04-09T05:32:10;70.40;;;41.03;;
29662;SDS011;16578;53.266;7.920;2023-04-09T05:34:35;66.93;;;40.47;;
29662;SDS011;16578;53.266;7.920;2023-04-09T05:37:01;62.05;;;39.40;;
29662;SDS011;16578;53.266;7.920;2023-04-09T05:39:27;64.05;;;39.65;;
29662;SDS011;16578;53.266;7.920;2023-04-09T05:41:55;66.47;;;38.88;;
29662;SDS011;16578;53.266;7.920;2023-04-09T05:44:24;62.88;;;39.00;;
29662;SDS011;16578;53.266;7.920;2023-04-09T05:46:50;65.97;;;38.10;;
29662;SDS011;16578;53.266;7.920;2023-04-09T05:49:16;62.42;;;38.47;;
29662;SDS011;16578;53.266;7.920;2023-04-09T05:51:41;67.85;;;39.08;;
29662;SDS011;16578;53.266;7.920;2023-04-09T05:54:07;61.08;;;36.42;;
29662;SDS011;16578;53.266;7.920;2023-04-09T05:56:33;60.67;;;35.45;;
29662;SDS011;16578;53.266;7.920;2023-04-09T05:58:59;58.50;;;35.15;;
29662;SDS011;16578;53.266;7.920;2023-04-09T06:01:25;65.93;;;37.35;;
29662;SDS011;16578;53.266;7.920;2023-04-09T06:03:51;53.53;;;35.78;;
29662;SDS011;16578;53.266;7.920;2023-04-09T06:06:16;61.22;;;37.47;;
29662;SDS011;16578;53.266;7.920;2023-04-09T06:08:42;57.50;;;37.30;;
29662;SDS011;16578;53.266;7.920;2023-04-09T06:11:09;58.97;;;34.60;;
29662;SDS011;16578;53.266;7.920;2023-04-09T06:13:35;55.80;;;35.08;;
29662;SDS011;16578;53.266;7.920;2023-04-09T06:16:07;53.42;;;33.40;;
29662;SDS011;16578;53.266;7.920;2023-04-09T06:18:34;51.65;;;31.67;;
29662;SDS011;16578;53.266;7.920;2023-04-09T06:21:04;50.80;;;30.42;;
29662;SDS011;16578;53.266;7.920;2023-04-09T06:23:31;50.50;;;32.92;;
29662;SDS011;16578;53.266;7.920;2023-04-09T06:25:57;49.40;;;31.00;;
29662;SDS011;16578;53.266;7.920;2023-04-09T06:28:23;51.42;;;30.80;;
29662;SDS011;16578;53.266;7.920;2023-04-09T06:30:48;47.60;;;29.48;;
29662;SDS011;16578;53.266;7.920;2023-04-09T06:33:14;44.67;;;29.90;;
29662;SDS011;16578;53.266;7.920;2023-04-09T06:35:40;46.38;;;29.92;;
29662;SDS011;16578;53.266;7.920;2023-04-09T06:38:06;47.97;;;29.15;;
29662;SDS011;16578;53.266;7.920;2023-04-09T06:40:34;46.72;;;29.00;;
29662;SDS011;16578;53.266;7.920;2023-04-09T06:43:02;43.47;;;28.33;;
29662;SDS011;16578;53.266;7.920;2023-04-09T06:45:29;46.30;;;27.67;;
29662;SDS011;16578;53.266;7.920;2023-04-09T06:47:55;44.42;;;26.70;;
29662;SDS011;16578;53.266;7.920;2023-04-09T06:50:20;39.60;;;25.77;;
29662;SDS011;16578;53.266;7.920;2023-04-09T06:52:46;40.17;;;25.95;;
29662;SDS011;16578;53.266;7.920;2023-04-09T06:55:12;39.60;;;25.40;;
29662;SDS011;16578;53.266;7.920;2023-04-09T06:57:37;38.00;;;25.75;;
29662;SDS011;16578;53.266;7.920;2023-04-09T07:00:03;41.55;;;24.23;;
29662;SDS011;16578;53.266;7.920;2023-04-09T07:02:29;35.42;;;23.15;;
29662;SDS011;16578;53.266;7.920;2023-04-09T07:04:55;33.05;;;23.13;;
29662;SDS011;16578;53.266;7.920;2023-04-09T07:07:21;35.67;;;22.30;;
29662;SDS011;16578;53.266;7.920;2023-04-09T07:09:47;30.25;;;20.50;;
29662;SDS011;16578;53.266;7.920;2023-04-09T07:12:12;30.83;;;21.38;;
29662;SDS011;16578;53.266;7.920;2023-04-09T07:14:38;29.63;;;19.20;;
29662;SDS011;16578;53.266;7.920;2023-04-09T07:17:04;29.42;;;18.80;;
29662;SDS011;16578;53.266;7.920;2023-04-09T07:19:29;31.45;;;19.83;;
29662;SDS011;16578;53.266;7.920;2023-04-09T07:21:55;26.63;;;17.45;;
29662;SDS011;16578;53.266;7.920;2023-04-09T07:24:21;27.05;;;18.77;;
29662;SDS011;16578;53.266;7.920;2023-04-09T07:26:46;26.75;;;17.95;;
29662;SDS011;16578;53.266;7.920;2023-04-09T07:29:12;35.60;;;21.95;;
29662;SDS011;16578;53.266;7.920;2023-04-09T07:31:37;29.73;;;21.30;;
29662;SDS011;16578;53.266;7.920;2023-04-09T07:34:03;28.67;;;18.88;;
29662;SDS011;16578;53.266;7.920;2023-04-09T07:36:28;32.15;;;19.80;;
29662;SDS011;16578;53.266;7.920;2023-04-09T07:38:55;33.00;;;21.92;;
29662;SDS011;16578;53.266;7.920;2023-04-09T07:41:21;32.70;;;20.25;;
29662;SDS011;16578;53.266;7.920;2023-04-09T07:43:46;30.08;;;21.90;;
29662;SDS011;16578;53.266;7.920;2023-04-09T07:46:17;31.30;;;20.40;;
29662;SDS011;16578;53.266;7.920;2023-04-09T07:48:45;29.52;;;19.70;;
29662;SDS011;16578;53.266;7.920;2023-04-09T07:51:11;31.27;;;19.83;;
29662;SDS011;16578;53.266;7.920;2023-04-09T07:53:36;27.90;;;18.25;;
29662;SDS011;16578;53.266;7.920;2023-04-09T07:56:02;30.60;;;18.45;;
29662;SDS011;16578;53.266;7.920;2023-04-09T07:58:28;28.10;;;19.88;;
29662;SDS011;16578;53.266;7.920;2023-04-09T08:00:53;27.80;;;18.25;;
29662;SDS011;16578;53.266;7.920;2023-04-09T08:03:19;26.20;;;17.55;;
29662;SDS011;16578;53.266;7.920;2023-04-09T08:05:46;28.30;;;17.83;;
29662;SDS011;16578;53.266;7.920;2023-04-09T08:08:12;27.23;;;18.25;;
29662;SDS011;16578;53.266;7.920;2023-04-09T08:10:37;26.20;;;18.02;;
29662;SDS011;16578;53.266;7.920;2023-04-09T08:13:03;26.23;;;17.35;;
29662;SDS011;16578;53.266;7.920;2023-04-09T08:15:29;23.58;;;15.75;;
29662;SDS011;16578;53.266;7.920;2023-04-09T08:17:54;27.65;;;19.23;;
29662;SDS011;16578;53.266;7.920;2023-04-09T08:20:20;28.63;;;20.20;;
29662;SDS011;16578;53.266;7.920;2023-04-09T08:22:46;29.10;;;21.00;;
29662;SDS011;16578;53.266;7.920;2023-04-09T08:25:11;22.98;;;17.20;;
29662;SDS011;16578;53.266;7.920;2023-04-09T08:27:37;26.00;;;17.42;;
29662;SDS011;16578;53.266;7.920;2023-04-09T08:30:03;30.90;;;22.60;;
29662;SDS011;16578;53.266;7.920;2023-04-09T08:32:29;30.90;;;19.38;;
29662;SDS011;16578;53.266;7.920;2023-04-09T08:34:55;27.85;;;18.67;;
29662;SDS011;16578;53.266;7.920;2023-04-09T08:37:21;33.72;;;24.17;;
29662;SDS011;16578;53.266;7.920;2023-04-09T08:39:46;31.48;;;22.80;;
29662;SDS011;16578;53.266;7.920;2023-04-09T08:42:12;31.30;;;20.10;;
29662;SDS011;16578;53.266;7.920;2023-04-09T08:44:39;28.70;;;19.92;;
29662;SDS011;16578;53.266;7.920;2023-04-09T08:47:08;35.42;;;24.30;;
29662;SDS011;16578;53.266;7.920;2023-04-09T08:49:35;33.25;;;20.35;;
29662;SDS011;16578;53.266;7.920;2023-04-09T08:52:03;29.52;;;20.85;;
29662;SDS011;16578;53.266;7.920;2023-04-09T08:54:29;31.33;;;23.77;;
29662;SDS011;16578;53.266;7.920;2023-04-09T08:56:54;33.92;;;24.40;;
29662;SDS011;16578;53.266;7.920;2023-04-09T08:59:21;34.05;;;25.55;;
29662;SDS011;16578;53.266;7.920;2023-04-09T09:01:47;31.08;;;22.27;;
29662;SDS011;16578;53.266;7.920;2023-04-09T09:04:17;28.80;;;19.75;;
29662;SDS011;16578;53.266;7.920;2023-04-09T09:06:43;33.65;;;25.17;;
29662;SDS011;16578;53.266;7.920;2023-04-09T09:09:13;31.02;;;24.08;;
29662;SDS011;16578;53.266;7.920;2023-04-09T09:11:41;34.15;;;23.90;;
29662;SDS011;16578;53.266;7.920;2023-04-09T09:14:13;27.42;;;19.88;;
29662;SDS011;16578;53.266;7.920;2023-04-09T09:16:44;30.70;;;20.17;;
29662;SDS011;16578;53.266;7.920;2023-04-09T09:19:28;30.20;;;20.48;;
29662;SDS011;16578;53.266;7.920;2023-04-09T09:21:58;31.15;;;20.80;;
29662;SDS011;16578;53.266;7.920;2023-04-09T09:24:26;26.25;;;18.90;;
29662;SDS011;16578;53.266;7.920;2023-04-09T09:26:51;32.67;;;23.50;;
29662;SDS011;16578;53.266;7.920;2023-04-09T09:29:24;32.95;;;24.20;;
29662;SDS011;16578;53.266;7.920;2023-04-09T09:31:50;30.88;;;21.27;;
29662;SDS011;16578;53.266;7.920;2023-04-09T09:34:17;32.85;;;23.45;;
29662;SDS011;16578;53.266;7.920;2023-04-09T09:36:44;32.58;;;23.33;;
29662;SDS011;16578;53.266;7.920;2023-04-09T09:39:10;27.55;;;18.38;;
29662;SDS011;16578;53.266;7.920;2023-04-09T09:41:40;30.23;;;20.20;;
29662;SDS011;16578;53.266;7.920;2023-04-09T09:44:06;28.10;;;18.48;;
29662;SDS011;16578;53.266;7.920;2023-04-09T09:46:34;28.85;;;19.27;;
29662;SDS011;16578;53.266;7.920;2023-04-09T09:49:05;28.00;;;21.23;;
29662;SDS011;16578;53.266;7.920;2023-04-09T09:51:31;26.02;;;18.90;;
29662;SDS011;16578;53.266;7.920;2023-04-09T09:53:58;27.67;;;21.70;;
29662;SDS011;16578;53.266;7.920;2023-04-09T09:56:26;25.25;;;18.85;;
29662;SDS011;16578;53.266;7.920;2023-04-09T09:59:00;25.98;;;19.90;;
29662;SDS011;16578;53.266;7.920;2023-04-09T10:01:31;23.60;;;17.23;;
29662;SDS011;16578;53.266;7.920;2023-04-09T10:03:58;23.00;;;16.05;;
29662;SDS011;16578;53.266;7.920;2023-04-09T10:06:25;28.40;;;20.35;;
29662;SDS011;16578;53.266;7.920;2023-04-09T10:08:51;23.02;;;16.20;;
29662;SDS011;16578;53.266;7.920;2023-04-09T10:11:21;24.75;;;19.13;;
29662;SDS011;16578;53.266;7.920;2023-04-09T10:13:52;24.15;;;17.65;;
29662;SDS011;16578;53.266;7.920;2023-04-09T10:16:23;22.52;;;16.40;;
29662;SDS011;16578;53.266;7.920;2023-04-09T10:18:50;20.50;;;14.23;;
29662;SDS011;16578;53.266;7.920;2023-04-09T10:24:04;24.58;;;19.35;;
29662;SDS011;16578;53.266;7.920;2023-04-09T10:26:32;24.75;;;19.50;;
29662;SDS011;16578;53.266;7.920;2023-04-09T10:29:03;25.42;;;19.80;;
29662;SDS011;16578;53.266;7.920;2023-04-09T10:31:43;25.20;;;19.38;;
29662;SDS011;16578;53.266;7.920;2023-04-09T10:34:09;25.73;;;19.40;;
29662;SDS011;16578;53.266;7.920;2023-04-09T10:36:35;23.80;;;17.23;;
29662;SDS011;16578;53.266;7.920;2023-04-09T10:39:00;22.77;;;18.70;;
29662;SDS011;16578;53.266;7.920;2023-04-09T10:41:36;25.27;;;19.25;;
29662;SDS011;16578;53.266;7.920;2023-04-09T10:44:05;20.30;;;15.48;;
29662;SDS011;16578;53.266;7.920;2023-04-09T10:46:43;23.95;;;18.95;;
29662;SDS011;16578;53.266;7.920;2023-04-09T10:51:50;22.63;;;18.20;;
29662;SDS011;16578;53.266;7.920;2023-04-09T10:59:32;21.42;;;17.55;;
29662;SDS011;16578;53.266;7.920;2023-04-09T11:01:58;23.10;;;17.58;;
29662;SDS011;16578;53.266;7.920;2023-04-09T11:04:25;22.58;;;17.73;;
29662;SDS011;16578;53.266;7.920;2023-04-09T11:07:04;20.77;;;17.13;;
29662;SDS011;16578;53.266;7.920;2023-04-09T11:09:33;22.95;;;17.75;;
29662;SDS011;16578;53.266;7.920;2023-04-09T11:11:59;21.38;;;17.45;;
29662;SDS011;16578;53.266;7.920;2023-04-09T11:14:25;21.30;;;17.08;;
29662;SDS011;16578;53.266;7.920;2023-04-09T11:16:51;20.15;;;16.65;;
29662;SDS011;16578;53.266;7.920;2023-04-09T11:19:17;21.35;;;16.42;;
29662;SDS011;16578;53.266;7.920;2023-04-09T11:21:44;20.65;;;16.67;;
29662;SDS011;16578;53.266;7.920;2023-04-09T11:24:11;22.13;;;17.45;;
29662;SDS011;16578;53.266;7.920;2023-04-09T11:26:37;21.20;;;16.85;;
29662;SDS011;16578;53.266;7.920;2023-04-09T11:29:06;20.98;;;17.13;;
29662;SDS011;16578;53.266;7.920;2023-04-09T11:31:35;20.10;;;17.05;;
29662;SDS011;16578;53.266;7.920;2023-04-09T11:34:01;19.05;;;15.90;;
29662;SDS011;16578;53.266;7.920;2023-04-09T11:36:27;19.92;;;16.27;;
29662;SDS011;16578;53.266;7.920;2023-04-09T11:38:52;24.45;;;18.75;;
29662;SDS011;16578;53.266;7.920;2023-04-09T11:44:01;22.15;;;17.75;;
29662;SDS011;16578;53.266;7.920;2023-04-09T11:46:28;21.35;;;16.80;;
29662;SDS011;16578;53.266;7.920;2023-04-09T11:48:56;23.42;;;15.63;;
29662;SDS011;16578;53.266;7.920;2023-04-09T11:51:22;20.20;;;16.95;;
29662;SDS011;16578;53.266;7.920;2023-04-09T11:53:48;20.77;;;16.70;;
29662;SDS011;16578;53.266;7.920;2023-04-09T11:56:15;19.08;;;16.10;;
29662;SDS011;16578;53.266;7.920;2023-04-09T11:58:44;19.85;;;16.45;;
29662;SDS011;16578;53.266;7.920;2023-04-09T12:01:11;23.30;;;18.33;;
29662;SDS011;16578;53.266;7.920;2023-04-09T12:03:36;19.05;;;15.18;;
29662;SDS011;16578;53.266;7.920;2023-04-09T12:06:03;21.50;;;17.15;;
29662;SDS011;16578;53.266;7.920;2023-04-09T12:08:32;18.42;;;14.02;;
29662;SDS011;16578;53.266;7.920;2023-04-09T12:11:13;18.88;;;15.60;;
29662;SDS011;16578;53.266;7.920;2023-04-09T12:13:40;19.38;;;14.05;;
29662;SDS011;16578;53.266;7.920;2023-04-09T12:16:08;19.10;;;15.50;;
29662;SDS011;16578;53.266;7.920;2023-04-09T12:18:35;20.73;;;15.82;;
29662;SDS011;16578;53.266;7.920;2023-04-09T12:21:01;20.20;;;16.10;;
29662;SDS011;16578;53.266;7.920;2023-04-09T12:23:27;20.55;;;15.98;;
29662;SDS011;16578;53.266;7.920;2023-04-09T12:25:55;17.27;;;13.33;;
29662;SDS011;16578;53.266;7.920;2023-04-09T12:28:23;16.08;;;12.98;;
29662;SDS011;16578;53.266;7.920;2023-04-09T12:30:49;19.13;;;15.38;;
29662;SDS011;16578;53.266;7.920;2023-04-09T12:33:15;16.25;;;14.52;;
29662;SDS011;16578;53.266;7.920;2023-04-09T12:35:41;19.25;;;15.15;;
29662;SDS011;16578;53.266;7.920;2023-04-09T12:38:06;20.08;;;15.63;;
29662;SDS011;16578;53.266;7.920;2023-04-09T12:40:32;19.70;;;14.73;;
29662;SDS011;16578;53.266;7.920;2023-04-09T12:42:58;15.55;;;12.63;;
29662;SDS011;16578;53.266;7.920;2023-04-09T12:45:24;17.65;;;13.77;;
29662;SDS011;16578;53.266;7.920;2023-04-09T12:47:50;17.55;;;11.52;;
29662;SDS011;16578;53.266;7.920;2023-04-09T12:50:15;15.88;;;11.82;;
29662;SDS011;16578;53.266;7.920;2023-04-09T12:52:41;17.15;;;13.55;;
29662;SDS011;16578;53.266;7.920;2023-04-09T12:55:08;16.08;;;12.90;;
29662;SDS011;16578;53.266;7.920;2023-04-09T12:57:35;17.13;;;13.68;;
29662;SDS011;16578;53.266;7.920;2023-04-09T13:00:01;17.48;;;14.55;;
29662;SDS011;16578;53.266;7.920;2023-04-09T13:02:29;15.68;;;13.57;;
29662;SDS011;16578;53.266;7.920;2023-04-09T13:04:55;16.13;;;13.48;;
29662;SDS011;16578;53.266;7.920;2023-04-09T13:07:21;15.70;;;13.23;;
29662;SDS011;16578;53.266;7.920;2023-04-09T13:09:47;14.68;;;12.85;;
29662;SDS011;16578;53.266;7.920;2023-04-09T13:12:16;15.45;;;12.35;;
29662;SDS011;16578;53.266;7.920;2023-04-09T13:14:43;16.17;;;13.27;;
29662;SDS011;16578;53.266;7.920;2023-04-09T13:17:10;16.33;;;13.37;;
29662;SDS011;16578;53.266;7.920;2023-04-09T13:19:36;14.30;;;12.38;;
29662;SDS011;16578;53.266;7.920;2023-04-09T13:22:01;15.30;;;12.38;;
29662;SDS011;16578;53.266;7.920;2023-04-09T13:24:27;14.82;;;12.48;;
29662;SDS011;16578;53.266;7.920;2023-04-09T13:26:52;17.73;;;14.52;;
29662;SDS011;16578;53.266;7.920;2023-04-09T13:29:18;13.00;;;10.88;;
29662;SDS011;16578;53.266;7.920;2023-04-09T13:31:44;13.63;;;12.10;;
29662;SDS011;16578;53.266;7.920;2023-04-09T13:34:09;16.60;;;13.05;;
29662;SDS011;16578;53.266;7.920;2023-04-09T13:36:35;14.88;;;12.38;;
29662;SDS011;16578;53.266;7.920;2023-04-09T13:39:01;13.95;;;12.05;;
29662;SDS011;16578;53.266;7.920;2023-04-09T13:41:30;13.90;;;11.98;;
29662;SDS011;16578;53.266;7.920;2023-04-09T13:43:59;14.55;;;12.38;;
29662;SDS011;16578;53.266;7.920;2023-04-09T13:46:25;14.93;;;12.52;;
29662;SDS011;16578;53.266;7.920;2023-04-09T13:48:51;14.57;;;12.27;;
29662;SDS011;16578;53.266;7.920;2023-04-09T13:51:18;14.23;;;11.90;;
29662;SDS011;16578;53.266;7.920;2023-04-09T13:53:45;14.00;;;12.50;;
29662;SDS011;16578;53.266;7.920;2023-04-09T13:56:12;15.77;;;13.43;;
29662;SDS011;16578;53.266;7.920;2023-04-09T13:58:37;16.75;;;13.70;;
29662;SDS011;16578;53.266;7.920;2023-04-09T14:01:03;14.23;;;12.73;;
29662;SDS011;16578;53.266;7.920;2023-04-09T14:03:29;15.07;;;13.40;;
29662;SDS011;16578;53.266;7.920;2023-04-09T14:05:55;14.55;;;13.05;;
29662;SDS011;16578;53.266;7.920;2023-04-09T14:08:21;16.27;;;13.43;;
29662;SDS011;16578;53.266;7.920;2023-04-09T14:10:46;15.65;;;13.95;;
29662;SDS011;16578;53.266;7.920;2023-04-09T14:13:12;16.85;;;13.65;;
29662;SDS011;16578;53.266;7.920;2023-04-09T14:15:38;13.68;;;12.25;;
29662;SDS011;16578;53.266;7.920;2023-04-09T14:18:03;15.18;;;13.52;;
29662;SDS011;16578;53.266;7.920;2023-04-09T14:20:29;15.98;;;14.00;;
29662;SDS011;16578;53.266;7.920;2023-04-09T14:22:55;17.23;;;14.23;;
29662;SDS011;16578;53.266;7.920;2023-04-09T14:25:20;16.17;;;14.48;;
29662;SDS011;16578;53.266;7.920;2023-04-09T14:27:46;16.63;;;14.75;;
29662;SDS011;16578;53.266;7.920;2023-04-09T14:30:11;16.88;;;14.55;;
29662;SDS011;16578;53.266;7.920;2023-04-09T14:32:37;15.98;;;14.23;;
29662;SDS011;16578;53.266;7.920;2023-04-09T14:35:03;18.20;;;14.65;;
29662;SDS011;16578;53.266;7.920;2023-04-09T14:37:29;15.60;;;13.60;;
29662;SDS011;16578;53.266;7.920;2023-04-09T14:39:55;15.75;;;13.52;;
29662;SDS011;16578;53.266;7.920;2023-04-09T14:42:21;14.85;;;12.75;;
29662;SDS011;16578;53.266;7.920;2023-04-09T14:44:48;15.68;;;12.93;;
29662;SDS011;16578;53.266;7.920;2023-04-09T14:47:13;17.00;;;13.15;;